Time;durP1;ratioP1;P1;durP2;ratioP2;P2;SDS_P1;SDS_P2;PMS_P1;PMS_P2;Temp;Humidity;BMP_temperature;BMP_pressure;BME280_temperature;BME280_humidity;BME280_pressure;Samples;Min_cycle;Max_cycle;Signal;HPM_P1;HPM_P2
2021/04/24 00:02:19;;;;;;;;;;;;;;;3.68;54.12;102131.84;5032233;28;19921;-76
2021/04/24 00:04:44;;;;;;;;;;;;;;;3.68;54.48;102136.38;5019664;28;20282;-75
2021/04/24 00:07:10;;;;;;;;;;;;;;;3.69;55.77;102140.75;5033461;28;19991;-74
2021/04/24 00:09:35;;;;;;;;;;;;;;;3.69;55.65;102138.06;5031534;28;19919;-75
2021/04/24 00:12:00;;;;;;;;;;;;;;;3.70;55.73;102145.09;5033722;28;19913;-74
2021/04/24 00:14:26;;;;;;;;;;;;;;;3.69;55.93;102140.75;5037979;28;19917;-75
2021/04/24 00:16:51;;;;;;;;;;;;;;;3.68;56.65;102147.16;5033668;28;19913;-75
2021/04/24 00:19:16;;;;;;;;;;;;;;;3.69;57.36;102140.75;5031897;28;19975;-75
2021/04/24 00:21:41;;;;;;;;;;;;;;;3.69;57.12;102146.16;5015237;28;19923;-75
2021/04/24 00:24:07;;;;;;;;;;;;;;;3.69;57.29;102144.28;5015660;28;19921;-75
2021/04/24 00:26:32;;;;;;;;;;;;;;;3.71;58.00;102157.56;5049198;28;19920;-76
2021/04/24 00:28:57;;;;;;;;;;;;;;;3.71;57.65;102160.25;5032951;28;20339;-75
2021/04/24 00:31:23;;;;;;;;;;;;;;;3.71;57.69;102163.81;5012510;28;20310;-75
2021/04/24 00:33:48;;;;;;;;;;;;;;;3.72;57.34;102159.25;5026662;28;19917;-75
2021/04/24 00:36:13;;;;;;;;;;;;;;;3.70;57.71;102164.00;5034766;28;20004;-74
2021/04/24 00:38:38;;;;;;;;;;;;;;;3.69;57.29;102175.81;5047406;28;19924;-74
2021/04/24 00:41:04;;;;;;;;;;;;;;;3.68;57.82;102176.81;5032942;28;20305;-75
2021/04/24 00:43:29;;;;;;;;;;;;;;;3.65;57.27;102175.34;5051423;28;20457;-75
2021/04/24 00:45:54;;;;;;;;;;;;;;;3.63;57.41;102173.88;5036464;28;19909;-75
2021/04/24 00:48:19;;;;;;;;;;;;;;;3.62;57.70;102180.31;5031676;28;20357;-75
2021/04/24 00:50:45;;;;;;;;;;;;;;;3.59;57.06;102180.69;5042127;28;19920;-75
2021/04/24 00:53:11;;;;;;;;;;;;;;;3.59;57.48;102180.69;5030971;28;20027;-75
2021/04/24 00:55:36;;;;;;;;;;;;;;;3.59;56.80;102178.00;5026555;28;19963;-75
2021/04/24 00:58:02;;;;;;;;;;;;;;;3.55;56.75;102181.09;5048350;28;20014;-75
2021/04/24 01:00:27;;;;;;;;;;;;;;;3.54;56.36;102174.00;5014972;28;19913;-75
2021/04/24 01:02:53;;;;;;;;;;;;;;;3.52;56.35;102176.09;5049107;28;19920;-75
2021/04/24 01:05:19;;;;;;;;;;;;;;;3.50;56.49;102188.09;5040492;28;19913;-75
2021/04/24 01:07:44;;;;;;;;;;;;;;;3.48;55.82;102172.09;5015892;28;19913;-75
2021/04/24 01:10:10;;;;;;;;;;;;;;;3.47;55.66;102189.31;5055276;28;20337;-75
2021/04/24 01:12:35;;;;;;;;;;;;;;;3.46;55.92;102193.00;5032013;28;19981;-76
2021/04/24 01:15:01;;;;;;;;;;;;;;;3.45;55.81;102190.53;5014313;28;19913;-75
2021/04/24 01:17:26;;;;;;;;;;;;;;;3.42;55.83;102194.44;5029979;28;20294;-76
2021/04/24 01:19:51;;;;;;;;;;;;;;;3.40;55.85;102193.78;5048287;28;20031;-75
2021/04/24 01:22:16;;;;;;;;;;;;;;;3.38;55.29;102195.81;5030588;28;19947;-75
2021/04/24 01:24:42;;;;;;;;;;;;;;;3.36;55.22;102197.91;5029598;28;20433;-75
2021/04/24 01:27:08;;;;;;;;;;;;;;;3.34;55.34;102197.25;5031122;28;19917;-75
2021/04/24 01:29:34;;;;;;;;;;;;;;;3.31;55.17;102203.03;5013758;28;20358;-75
2021/04/24 01:32:00;;;;;;;;;;;;;;;3.27;55.43;102199.03;5047649;28;19913;-75
2021/04/24 01:34:26;;;;;;;;;;;;;;;3.26;54.74;102205.44;5022654;28;19920;-74
2021/04/24 01:36:52;;;;;;;;;;;;;;;3.23;54.84;102208.53;5042489;28;19913;-75
2021/04/24 01:39:18;;;;;;;;;;;;;;;3.19;54.75;102216.16;5031773;28;19913;-75
2021/04/24 01:41:43;;;;;;;;;;;;;;;3.17;55.30;102215.50;5044722;28;19964;-75
2021/04/24 01:44:10;;;;;;;;;;;;;;;3.15;54.89;102222.13;5010126;28;19976;-75
2021/04/24 01:46:35;;;;;;;;;;;;;;;3.09;55.13;102208.38;5015176;28;19916;-75
2021/04/24 01:49:01;;;;;;;;;;;;;;;3.08;54.91;102206.72;5026959;28;19917;-75
2021/04/24 01:51:26;;;;;;;;;;;;;;;3.10;55.09;102218.13;5012035;28;20047;-75
2021/04/24 01:53:52;;;;;;;;;;;;;;;3.09;55.78;102213.75;5009903;28;20286;-75
2021/04/24 01:56:17;;;;;;;;;;;;;;;3.11;55.06;102217.13;5011641;28;19949;-75
2021/04/24 01:58:42;;;;;;;;;;;;;;;3.13;54.84;102221.47;5008174;28;20007;-75
2021/04/24 02:01:09;;;;;;;;;;;;;;;3.13;54.84;102213.38;5012677;28;19909;-75
2021/04/24 02:03:34;;;;;;;;;;;;;;;3.10;54.55;102210.03;5023221;28;19909;-75
2021/04/24 02:05:59;;;;;;;;;;;;;;;3.10;54.19;102218.13;5014808;28;20492;-75
2021/04/24 02:08:45;;;;;;;;;;;;;;;3.09;54.90;102212.94;5020789;28;19916;-74
2021/04/24 02:11:10;;;;;;;;;;;;;;;3.07;54.54;102215.81;5011181;28;19914;-75
2021/04/24 02:13:37;;;;;;;;;;;;;;;3.04;54.60;102216.19;5007768;28;19920;-75
2021/04/24 02:16:04;;;;;;;;;;;;;;;3.04;54.83;102221.56;5022308;28;19916;-75
2021/04/24 02:18:29;;;;;;;;;;;;;;;3.04;54.52;102221.56;5020087;28;19923;-75
2021/04/24 02:20:55;;;;;;;;;;;;;;;3.02;54.45;102220.91;5010044;28;19913;-75
2021/04/24 02:23:20;;;;;;;;;;;;;;;3.02;54.37;102229.00;5010808;28;20385;-76
2021/04/24 02:25:45;;;;;;;;;;;;;;;2.97;54.66;102226.03;5012758;28;19941;-75
2021/04/24 02:28:11;;;;;;;;;;;;;;;2.94;54.50;102234.50;5012742;28;20266;-76
2021/04/24 02:30:36;;;;;;;;;;;;;;;2.90;54.83;102230.50;5016198;28;19924;-75
2021/04/24 02:33:04;;;;;;;;;;;;;;;2.86;55.48;102227.38;5025180;28;19910;-75
2021/04/24 02:35:39;;;;;;;;;;;;;;;2.91;55.04;102237.56;5009715;28;19913;-75
2021/04/24 02:38:04;;;;;;;;;;;;;;;2.91;54.82;102234.03;5014707;28;19924;-75
2021/04/24 02:40:29;;;;;;;;;;;;;;;2.87;54.47;102230.91;5009508;28;19913;-75
2021/04/24 02:42:55;;;;;;;;;;;;;;;2.88;54.15;102241.47;5025240;28;19917;-75
2021/04/24 02:45:20;;;;;;;;;;;;;;;2.87;54.22;102230.91;5031013;28;20372;-75
2021/04/24 02:47:45;;;;;;;;;;;;;;;2.85;54.15;102233.75;5032262;28;19928;-75
2021/04/24 02:50:12;;;;;;;;;;;;;;;2.83;53.55;102240.34;5012747;28;19917;-75
2021/04/24 02:52:37;;;;;;;;;;;;;;;2.79;54.49;102231.81;5030568;28;19959;-75
2021/04/24 02:55:03;;;;;;;;;;;;;;;2.77;53.73;102236.56;5050333;28;20003;-75
2021/04/24 02:57:29;;;;;;;;;;;;;;;2.74;54.38;102244.19;5033148;28;20380;-75
2021/04/24 02:59:54;;;;;;;;;;;;;;;2.71;54.18;102241.84;5034388;28;19913;-75
2021/04/24 03:02:19;;;;;;;;;;;;;;;2.69;53.72;102239.34;5033055;28;20439;-75
2021/04/24 03:04:44;;;;;;;;;;;;;;;2.66;54.30;102240.53;5017728;28;19940;-75
2021/04/24 03:07:10;;;;;;;;;;;;;;;2.64;54.45;102242.56;5034780;28;19917;-75
2021/04/24 03:09:35;;;;;;;;;;;;;;;2.63;54.25;102249.00;5031850;28;19979;-75
2021/04/24 03:12:01;;;;;;;;;;;;;;;2.60;54.21;102245.84;5034752;28;20313;-75
2021/04/24 03:14:27;;;;;;;;;;;;;;;2.59;54.59;102244.16;5031456;28;19919;-75
2021/04/24 03:16:52;;;;;;;;;;;;;;;2.58;54.62;102248.72;5034166;28;19913;-75
2021/04/24 03:19:17;;;;;;;;;;;;;;;2.59;54.41;102244.16;5033699;28;19912;-75
2021/04/24 03:21:42;;;;;;;;;;;;;;;2.57;54.24;102248.91;5033599;28;20358;-75
2021/04/24 03:24:08;;;;;;;;;;;;;;;2.57;53.74;102236.28;5015704;28;19936;-75
2021/04/24 03:26:33;;;;;;;;;;;;;;;2.59;53.64;102255.78;5034502;28;19963;-75
2021/04/24 03:28:58;;;;;;;;;;;;;;;2.60;53.54;102251.22;5049349;28;19913;-75
2021/04/24 03:31:24;;;;;;;;;;;;;;;2.60;53.01;102251.22;5033432;28;19913;-75
2021/04/24 03:33:49;;;;;;;;;;;;;;;2.60;52.93;102257.44;5032595;28;20014;-75
2021/04/24 03:36:14;;;;;;;;;;;;;;;2.59;52.57;102266.56;5034241;28;20259;-75
2021/04/24 03:38:39;;;;;;;;;;;;;;;2.58;52.83;102264.03;5045477;28;19918;-75
2021/04/24 03:41:05;;;;;;;;;;;;;;;2.58;52.83;102270.25;5034131;28;19920;-75
2021/04/24 03:43:31;;;;;;;;;;;;;;;2.57;52.24;102273.16;5043220;28;19932;-75
2021/04/24 03:45:56;;;;;;;;;;;;;;;2.55;52.63;102275.19;4996122;28;19936;-75
2021/04/24 03:48:22;;;;;;;;;;;;;;;2.52;52.53;102276.38;5030998;28;20309;-75
2021/04/24 03:50:48;;;;;;;;;;;;;;;2.51;53.09;102280.09;5029570;28;19913;-75
2021/04/24 03:53:14;;;;;;;;;;;;;;;2.48;53.16;102283.13;5055277;28;20007;-75
2021/04/24 03:55:39;;;;;;;;;;;;;;;2.45;52.64;102283.50;5017531;28;20441;-75
2021/04/24 03:58:04;;;;;;;;;;;;;;;2.44;52.98;102284.53;5049327;28;19913;-75
2021/04/24 04:00:30;;;;;;;;;;;;;;;2.43;53.19;102282.88;5032892;28;19959;-75
2021/04/24 04:02:56;;;;;;;;;;;;;;;2.42;52.62;102287.41;5048952;28;19999;-75
2021/04/24 04:05:22;;;;;;;;;;;;;;;2.41;52.75;102287.59;4998139;28;20281;-75
2021/04/24 04:07:47;;;;;;;;;;;;;;;2.40;52.89;102291.28;5014644;28;19920;-75
2021/04/24 04:10:13;;;;;;;;;;;;;;;2.40;52.96;102299.34;5029711;28;19960;-75
2021/04/24 04:12:38;;;;;;;;;;;;;;;2.39;53.23;102300.41;5033900;28;19959;-75
2021/04/24 04:15:05;;;;;;;;;;;;;;;2.39;53.03;102298.53;5032952;28;20028;-75
2021/04/24 04:17:30;;;;;;;;;;;;;;;2.40;52.88;102311.00;5032347;28;19971;-75
2021/04/24 04:19:56;;;;;;;;;;;;;;;2.41;53.19;102306.44;5032754;28;19957;-75
2021/04/24 04:22:21;;;;;;;;;;;;;;;2.41;52.80;102311.81;5021423;28;20381;-75
2021/04/24 04:24:46;;;;;;;;;;;;;;;2.42;53.16;102310.78;5031626;28;19919;-75
2021/04/24 04:27:12;;;;;;;;;;;;;;;2.43;53.04;102304.41;5016106;28;20369;-76
2021/04/24 04:29:37;;;;;;;;;;;;;;;2.44;53.13;102300.69;5032530;28;19913;-75
2021/04/24 04:32:02;;;;;;;;;;;;;;;2.48;53.00;102306.53;5033101;28;19913;-75
2021/04/24 04:34:27;;;;;;;;;;;;;;;2.48;53.18;102307.38;5031359;28;19921;-75
2021/04/24 04:36:53;;;;;;;;;;;;;;;2.50;52.40;102309.88;5031868;28;20254;-75
2021/04/24 04:39:18;;;;;;;;;;;;;;;2.51;52.20;102323.19;5031312;28;19913;-75
2021/04/24 04:41:43;;;;;;;;;;;;;;;2.54;52.50;102313.91;5032775;28;19917;-75
2021/04/24 04:44:08;;;;;;;;;;;;;;;2.55;52.79;102312.88;5047755;28;19945;-75
2021/04/24 04:46:35;;;;;;;;;;;;;;;2.56;52.74;102315.34;5018603;28;19927;-75
2021/04/24 04:49:00;;;;;;;;;;;;;;;2.56;52.17;102299.22;5031833;28;20003;-75
2021/04/24 04:51:25;;;;;;;;;;;;;;;2.56;52.13;102299.22;5033389;28;20449;-75
2021/04/24 04:53:51;;;;;;;;;;;;;;;2.59;53.01;102308.78;5048356;28;19925;-75
2021/04/24 04:56:16;;;;;;;;;;;;;;;2.59;52.53;102306.94;5051952;28;19913;-75
2021/04/24 04:58:41;;;;;;;;;;;;;;;2.61;52.87;102312.13;5032655;28;19913;-75
2021/04/24 05:01:06;;;;;;;;;;;;;;;2.63;52.78;102305.53;5031950;28;19917;-75
2021/04/24 05:03:31;;;;;;;;;;;;;;;2.66;52.01;102299.78;5032652;28;20006;-75
2021/04/24 05:05:58;;;;;;;;;;;;;;;2.69;51.81;102311.22;5048134;28;20299;-75
2021/04/24 05:08:24;;;;;;;;;;;;;;;2.70;52.24;102310.19;5031302;28;19948;-75
2021/04/24 05:10:49;;;;;;;;;;;;;;;2.73;52.13;102304.44;5037123;28;19952;-75
2021/04/24 05:13:14;;;;;;;;;;;;;;;2.75;51.83;102302.41;5033112;28;19916;-75
2021/04/24 05:15:39;;;;;;;;;;;;;;;2.76;51.80;102314.84;5029890;28;19913;-75
2021/04/24 05:18:05;;;;;;;;;;;;;;;2.77;52.16;102306.56;5031802;28;19939;-75
2021/04/24 05:20:30;;;;;;;;;;;;;;;2.78;51.90;102307.41;5014840;28;20006;-76
2021/04/24 05:22:55;;;;;;;;;;;;;;;2.79;51.40;102304.53;5032685;28;19909;-75
2021/04/24 05:25:21;;;;;;;;;;;;;;;2.81;51.24;102313.28;5049316;28;19982;-76
2021/04/24 05:27:47;;;;;;;;;;;;;;;2.81;50.90;102307.03;5017819;28;19913;-74
2021/04/24 05:30:13;;;;;;;;;;;;;;;2.81;50.70;102312.41;5030259;28;19913;-76
2021/04/24 05:32:38;;;;;;;;;;;;;;;2.85;50.80;102313.75;5032212;28;19920;-75
2021/04/24 05:35:04;;;;;;;;;;;;;;;2.85;50.55;102308.34;5029866;28;20288;-75
2021/04/24 05:37:29;;;;;;;;;;;;;;;2.89;50.79;102315.03;5011351;28;19966;-75
2021/04/24 05:39:56;;;;;;;;;;;;;;;2.91;51.26;102312.16;5029826;28;20336;-75
2021/04/24 05:42:21;;;;;;;;;;;;;;;2.93;50.69;102326.28;5030505;28;20024;-75
2021/04/24 05:44:46;;;;;;;;;;;;;;;2.94;50.75;102327.94;5029202;28;20339;-75
2021/04/24 05:47:12;;;;;;;;;;;;;;;2.94;50.69;102333.34;5030701;28;19913;-74
2021/04/24 05:49:37;;;;;;;;;;;;;;;2.98;50.63;102318.50;5029107;28;19921;-75
2021/04/24 05:52:04;;;;;;;;;;;;;;;3.00;49.82;102319.13;5029950;28;20312;-75
2021/04/24 05:54:30;;;;;;;;;;;;;;;3.02;50.00;102319.78;5024291;28;19939;-75
2021/04/24 05:56:55;;;;;;;;;;;;;;;3.03;50.09;102325.00;5018521;28;20285;-75
2021/04/24 05:59:21;;;;;;;;;;;;;;;3.07;49.80;102328.16;5045524;28;19924;-76
2021/04/24 06:01:46;;;;;;;;;;;;;;;3.13;50.12;102331.94;5030298;28;20428;-74
2021/04/24 06:04:11;;;;;;;;;;;;;;;3.17;49.70;102320.63;5026600;28;19984;-76
2021/04/24 06:06:36;;;;;;;;;;;;;;;3.20;49.89;102322.09;5005434;28;19913;-75
2021/04/24 06:09:02;;;;;;;;;;;;;;;3.22;49.74;102320.03;5030357;28;19913;-75
2021/04/24 06:11:27;;;;;;;;;;;;;;;3.24;49.76;102321.53;5030408;28;19913;-75
2021/04/24 06:13:52;;;;;;;;;;;;;;;3.26;49.49;102321.34;5046031;28;19913;-75
2021/04/24 06:16:19;;;;;;;;;;;;;;;3.28;49.46;102313.91;5012707;28;19917;-75
2021/04/24 06:18:44;;;;;;;;;;;;;;;3.30;48.61;102328.03;5052538;28;20305;-76
2021/04/24 06:21:09;;;;;;;;;;;;;;;3.32;49.36;102326.00;5020710;28;19928;-75
2021/04/24 06:23:34;;;;;;;;;;;;;;;3.36;49.39;102327.28;5036226;28;19917;-75
2021/04/24 06:26:00;;;;;;;;;;;;;;;3.38;48.68;102327.91;5024323;28;19955;-76
2021/04/24 06:28:25;;;;;;;;;;;;;;;3.44;48.43;102324.50;5029144;28;19913;-76
2021/04/24 06:30:50;;;;;;;;;;;;;;;3.47;48.30;102326.81;5029012;28;19939;-76
2021/04/24 06:33:15;;;;;;;;;;;;;;;3.52;48.23;102327.09;5017165;28;20012;-75
2021/04/24 06:35:41;;;;;;;;;;;;;;;3.55;48.14;102326.72;5035547;28;19921;-75
2021/04/24 06:38:06;;;;;;;;;;;;;;;3.60;48.15;102319.88;5051583;28;20043;-76
2021/04/24 06:40:31;;;;;;;;;;;;;;;3.64;48.69;102332.00;5034170;28;20284;-74
2021/04/24 06:42:56;;;;;;;;;;;;;;;3.70;48.34;102331.22;5017618;28;20039;-74
2021/04/24 06:45:23;;;;;;;;;;;;;;;3.73;48.32;102328.13;5033348;28;19927;-76
2021/04/24 06:47:49;;;;;;;;;;;;;;;3.77;47.82;102329.44;5031411;28;20004;-75
2021/04/24 06:50:14;;;;;;;;;;;;;;;3.80;47.65;102323.66;5014958;28;20004;-75
2021/04/24 06:52:39;;;;;;;;;;;;;;;3.83;48.18;102323.28;5015786;28;19948;-74
2021/04/24 06:55:05;;;;;;;;;;;;;;;3.88;47.64;102326.25;5030361;28;19922;-76
2021/04/24 06:57:31;;;;;;;;;;;;;;;3.92;47.87;102324.81;5034850;28;20008;-76
2021/04/24 06:59:56;;;;;;;;;;;;;;;3.98;48.09;102334.88;5004435;28;20367;-75
2021/04/24 07:02:21;;;;;;;;;;;;;;;4.04;47.54;102333.25;5030685;28;19979;-76
2021/04/24 07:04:46;;;;;;;;;;;;;;;4.04;47.56;102335.97;5032255;28;19924;-75
2021/04/24 07:07:13;;;;;;;;;;;;;;;4.06;47.37;102336.59;5029760;28;19915;-75
2021/04/24 07:09:38;;;;;;;;;;;;;;;4.10;47.48;102340.59;5016406;28;19925;-74
2021/04/24 07:12:03;;;;;;;;;;;;;;;4.14;47.46;102332.94;5030884;28;19916;-75
2021/04/24 07:14:29;;;;;;;;;;;;;;;4.19;47.45;102342.13;5031637;28;19968;-75
2021/04/24 07:16:54;;;;;;;;;;;;;;;4.24;48.02;102336.16;5028563;28;19920;-75
2021/04/24 07:19:19;;;;;;;;;;;;;;;4.27;47.96;102338.44;5027134;28;19921;-75
2021/04/24 07:21:45;;;;;;;;;;;;;;;4.34;48.02;102344.75;5033040;28;19913;-75
2021/04/24 07:24:10;;;;;;;;;;;;;;;4.42;47.63;102339.22;5020512;28;19909;-75
2021/04/24 07:26:36;;;;;;;;;;;;;;;4.44;47.28;102333.59;5031217;28;19919;-75
2021/04/24 07:29:02;;;;;;;;;;;;;;;4.44;47.26;102339.84;5032309;28;20533;-75
2021/04/24 07:31:28;;;;;;;;;;;;;;;4.47;47.31;102330.53;5033166;28;19913;-75
2021/04/24 07:33:53;;;;;;;;;;;;;;;4.52;46.79;102329.94;5031082;28;19920;-75
2021/04/24 07:36:18;;;;;;;;;;;;;;;4.55;47.07;102337.66;5015284;28;19913;-75
2021/04/24 07:38:44;;;;;;;;;;;;;;;4.58;46.68;102329.16;5033785;28;19943;-76
2021/04/24 07:41:09;;;;;;;;;;;;;;;4.66;46.40;102329.00;5029576;28;19936;-75
2021/04/24 07:43:35;;;;;;;;;;;;;;;4.75;46.80;102329.72;5030853;28;19952;-75
2021/04/24 07:46:01;;;;;;;;;;;;;;;4.79;46.25;102321.00;5024421;28;19916;-75
2021/04/24 07:48:26;;;;;;;;;;;;;;;4.83;45.94;102321.47;5033756;28;20376;-75
2021/04/24 07:50:51;;;;;;;;;;;;;;;4.88;45.90;102322.53;5022165;28;19916;-75
2021/04/24 07:53:17;;;;;;;;;;;;;;;4.94;45.64;102314.63;5029956;28;19919;-75
2021/04/24 07:55:42;;;;;;;;;;;;;;;4.94;45.49;102325.44;5032419;28;19916;-75
2021/04/24 07:58:07;;;;;;;;;;;;;;;4.99;45.20;102323.00;5022609;28;19921;-75
2021/04/24 08:00:33;;;;;;;;;;;;;;;5.01;45.31;102315.53;5032725;28;19913;-75
2021/04/24 08:02:58;;;;;;;;;;;;;;;5.07;45.42;102314.72;5015576;28;19913;-75
2021/04/24 08:05:24;;;;;;;;;;;;;;;5.13;45.07;102324.75;5040497;28;19912;-75
2021/04/24 08:07:49;;;;;;;;;;;;;;;5.19;45.08;102313.13;5013174;28;19917;-75
2021/04/24 08:10:15;;;;;;;;;;;;;;;5.23;44.63;102324.38;5014272;28;19927;-76
2021/04/24 08:12:42;;;;;;;;;;;;;;;5.26;44.82;102326.69;5033477;28;19912;-76
2021/04/24 08:15:07;;;;;;;;;;;;;;;5.31;44.70;102329.63;5032732;28;19912;-74
2021/04/24 08:17:33;;;;;;;;;;;;;;;5.37;44.30;102325.28;4998188;28;20330;-75
2021/04/24 08:19:58;;;;;;;;;;;;;;;5.42;43.88;102320.09;5023871;28;19913;-76
2021/04/24 08:22:23;;;;;;;;;;;;;;;5.44;44.19;102320.75;5016913;28;19920;-75
2021/04/24 08:24:49;;;;;;;;;;;;;;;5.50;44.03;102314.50;5014087;28;20358;-75
2021/04/24 08:27:14;;;;;;;;;;;;;;;5.52;43.74;102323.28;5029023;28;19913;-76
2021/04/24 08:29:39;;;;;;;;;;;;;;;5.56;43.24;102319.09;5015046;28;19917;-75
2021/04/24 08:32:05;;;;;;;;;;;;;;;5.58;42.84;102319.75;5031721;28;19928;-75
2021/04/24 08:34:30;;;;;;;;;;;;;;;5.63;42.33;102309.16;5022630;28;19917;-75
2021/04/24 08:36:56;;;;;;;;;;;;;;;5.66;41.93;102308.75;5030858;28;19939;-76
2021/04/24 08:39:21;;;;;;;;;;;;;;;5.71;42.01;102317.09;5012595;28;19923;-75
2021/04/24 08:41:46;;;;;;;;;;;;;;;5.82;42.24;102310.25;5031235;28;19924;-76
2021/04/24 08:44:15;;;;;;;;;;;;;;;5.92;42.33;102317.94;5032093;28;19935;-74
2021/04/24 08:46:40;;;;;;;;;;;;;;;5.99;42.05;102314.25;5018285;28;20267;-76
2021/04/24 08:49:06;;;;;;;;;;;;;;;6.10;41.76;102325.53;5032017;28;19919;-74
2021/04/24 08:51:31;;;;;;;;;;;;;;;6.14;41.59;102319.50;5028786;28;19917;-75
2021/04/24 08:53:59;;;;;;;;;;;;;;;6.20;41.36;102315.97;5029713;28;20286;-75
2021/04/24 08:56:25;;;;;;;;;;;;;;;6.23;41.03;102315.53;5014429;28;20281;-75
2021/04/24 08:58:51;;;;;;;;;;;;;;;6.29;40.90;102313.06;5013942;28;19968;-75
2021/04/24 09:01:16;;;;;;;;;;;;;;;6.34;40.62;102310.56;5015597;28;19925;-75
2021/04/24 09:03:42;;;;;;;;;;;;;;;6.46;40.67;102314.28;5031555;28;19916;-75
2021/04/24 09:06:08;;;;;;;;;;;;;;;6.59;40.75;102303.44;5031627;28;20358;-75
2021/04/24 09:08:33;;;;;;;;;;;;;;;6.69;40.77;102300.31;5032098;28;19916;-75
2021/04/24 09:10:59;;;;;;;;;;;;;;;6.72;40.62;102312.63;5029008;28;20358;-76
2021/04/24 09:13:24;;;;;;;;;;;;;;;6.73;41.04;102301.56;5030258;28;19951;-75
2021/04/24 09:15:49;;;;;;;;;;;;;;;6.80;41.08;102298.84;5032733;28;20076;-76
2021/04/24 09:18:18;;;;;;;;;;;;;;;6.79;41.57;102313.44;5047228;28;20015;-76
2021/04/24 09:20:46;;;;;;;;;;;;;;;6.79;41.93;102308.00;5020325;28;20059;-75
2021/04/24 09:23:12;;;;;;;;;;;;;;;6.81;41.78;102311.34;5031568;28;19920;-76
2021/04/24 09:25:38;;;;;;;;;;;;;;;6.88;41.63;102307.59;5028301;28;20004;-74
2021/04/24 09:28:04;;;;;;;;;;;;;;;6.82;41.42;102299.44;5013940;28;19913;-74
2021/04/24 09:30:31;;;;;;;;;;;;;;;6.85;41.50;102312.63;5013291;28;19944;-75
2021/04/24 09:33:06;;;;;;;;;;;;;;;6.86;41.41;102303.41;5023581;28;19920;-75
2021/04/24 09:35:42;;;;;;;;;;;;;;;6.92;41.77;102301.75;5031514;28;19917;-74
2021/04/24 09:38:09;;;;;;;;;;;;;;;6.99;41.12;102292.53;5014916;28;20275;-75
2021/04/24 09:40:34;;;;;;;;;;;;;;;7.03;41.15;102301.91;5027676;28;20400;-74
2021/04/24 09:43:02;;;;;;;;;;;;;;;7.08;41.05;102302.09;5027663;28;19964;-75
2021/04/24 09:45:28;;;;;;;;;;;;;;;7.11;41.00;102296.25;5030170;28;19913;-75
2021/04/24 09:47:54;;;;;;;;;;;;;;;7.08;41.17;102304.81;5028017;28;19915;-75
2021/04/24 09:50:29;;;;;;;;;;;;;;;7.15;41.43;102293.09;5030776;28;19913;-74
2021/04/24 09:53:12;;;;;;;;;;;;;;;7.19;41.26;102303.31;5047891;28;20342;-74
2021/04/24 09:55:37;;;;;;;;;;;;;;;7.24;41.28;102305.41;5044616;28;19917;-74
2021/04/24 09:58:03;;;;;;;;;;;;;;;7.25;40.97;102302.47;5011308;28;19920;-75
2021/04/24 10:00:28;;;;;;;;;;;;;;;7.30;40.91;102299.94;5026949;28;19913;-75
2021/04/24 10:02:53;;;;;;;;;;;;;;;7.38;40.91;102296.16;5032263;28;20004;-74
2021/04/24 10:05:22;;;;;;;;;;;;;;;7.43;40.80;102282.78;5031212;28;19920;-73
2021/04/24 10:07:48;;;;;;;;;;;;;;;7.41;40.52;102289.47;5018071;28;19908;-73
2021/04/24 10:10:14;;;;;;;;;;;;;;;7.48;40.15;102295.72;5035007;28;19976;-72
2021/04/24 10:12:39;;;;;;;;;;;;;;;7.56;39.84;102288.16;5033245;28;19963;-72
2021/04/24 10:15:05;;;;;;;;;;;;;;;7.69;39.87;102286.41;5033565;28;19952;-72
2021/04/24 10:17:30;;;;;;;;;;;;;;;7.75;39.69;102275.50;5016497;28;19968;-72
2021/04/24 10:19:55;;;;;;;;;;;;;;;7.79;39.39;102284.88;5049578;28;19941;-72
2021/04/24 10:22:22;;;;;;;;;;;;;;;7.78;39.25;102285.09;5033963;28;19920;-72
2021/04/24 10:24:47;;;;;;;;;;;;;;;7.81;39.47;102279.25;5022104;28;20294;-71
2021/04/24 10:27:13;;;;;;;;;;;;;;;7.71;39.85;102276.16;5049628;28;19913;-72
2021/04/24 10:29:39;;;;;;;;;;;;;;;7.66;40.16;102281.41;5033374;28;19920;-72
2021/04/24 10:32:04;;;;;;;;;;;;;;;7.66;40.71;102271.38;5046858;28;19916;-72
2021/04/24 10:34:29;;;;;;;;;;;;;;;7.71;41.09;102273.44;5030811;28;19921;-72
2021/04/24 10:36:55;;;;;;;;;;;;;;;7.75;41.54;102290.97;5024624;28;19925;-71
2021/04/24 10:39:20;;;;;;;;;;;;;;;7.71;41.67;102285.13;5031744;28;20000;-72
2021/04/24 10:41:47;;;;;;;;;;;;;;;7.75;41.54;102274.69;5030098;28;19929;-72
2021/04/24 10:44:16;;;;;;;;;;;;;;;7.76;41.96;102285.31;5017754;28;19916;-72
2021/04/24 10:46:48;;;;;;;;;;;;;;;7.67;41.62;102272.22;5013913;28;19931;-72
2021/04/24 10:49:14;;;;;;;;;;;;;;;7.68;41.12;102268.47;5016158;28;19913;-73
2021/04/24 10:51:52;;;;;;;;;;;;;;;7.71;40.69;102274.28;5018686;28;19912;-73
2021/04/24 10:54:17;;;;;;;;;;;;;;;7.70;40.54;102271.78;5033007;28;19978;-72
2021/04/24 10:56:42;;;;;;;;;;;;;;;7.75;40.51;102266.53;5032676;28;19960;-72
2021/04/24 10:59:21;;;;;;;;;;;;;;;7.75;40.25;102278.22;5032462;28;20027;-72
2021/04/24 11:02:05;;;;;;;;;;;;;;;7.78;40.72;102274.25;5018132;28;20211;-72
2021/04/24 11:04:42;;;;;;;;;;;;;;;7.90;41.16;102274.38;5032114;28;19913;-72
2021/04/24 11:07:17;;;;;;;;;;;;;;;8.04;40.63;102272.41;5030408;28;20277;-73
2021/04/24 11:09:43;;;;;;;;;;;;;;;8.12;39.93;102280.28;5030114;28;19917;-72
2021/04/24 11:12:10;;;;;;;;;;;;;;;8.05;39.70;102274.91;5020692;28;19966;-70
2021/04/24 11:14:35;;;;;;;;;;;;;;;8.10;40.14;102285.09;5018780;28;20007;-70
2021/04/24 11:17:00;;;;;;;;;;;;;;;8.20;40.44;102275.41;5032281;28;20004;-71
2021/04/24 11:19:41;;;;;;;;;;;;;;;8.19;39.77;102294.66;5029040;28;19913;-71
2021/04/24 11:22:25;;;;;;;;;;;;;;;8.27;39.59;102264.47;5032574;28;20027;-73
2021/04/24 11:24:50;;;;;;;;;;;;;;;8.38;39.59;102285.50;5023731;28;19971;-71
2021/04/24 11:27:15;;;;;;;;;;;;;;;8.48;39.59;102273.31;5032934;28;20329;-69
2021/04/24 11:29:40;;;;;;;;;;;;;;;8.59;39.38;102269.84;5032576;28;19924;-69
2021/04/24 11:32:19;;;;;;;;;;;;;;;8.60;39.44;102266.09;5021356;28;19920;-69
2021/04/24 11:34:45;;;;;;;;;;;;;;;8.78;40.04;102276.16;5030594;28;20281;-70
2021/04/24 11:37:10;;;;;;;;;;;;;;;8.74;39.71;102273.06;5034718;28;19909;-70
2021/04/24 11:39:35;;;;;;;;;;;;;;;8.66;39.61;102260.59;5050171;28;19939;-70
2021/04/24 11:42:20;;;;;;;;;;;;;;;8.84;39.49;102272.56;5025013;28;19974;-70
2021/04/24 11:44:45;;;;;;;;;;;;;;;8.94;39.58;102277.44;5047197;28;19917;-69
2021/04/24 11:47:10;;;;;;;;;;;;;;;8.88;39.38;102255.53;5037276;28;19916;-69
2021/04/24 11:49:48;;;;;;;;;;;;;;;8.93;39.13;102270.38;5015702;28;19912;-70
2021/04/24 11:52:13;;;;;;;;;;;;;;;9.19;38.91;102264.59;5035296;28;20389;-70
2021/04/24 11:54:41;;;;;;;;;;;;;;;9.22;38.48;102263.31;5027417;28;20000;-70
2021/04/24 11:57:10;;;;;;;;;;;;;;;9.22;37.99;102275.03;5019363;28;19962;-71
2021/04/24 11:59:36;;;;;;;;;;;;;;;9.36;38.38;102263.97;5033339;28;19975;-69
2021/04/24 12:02:14;;;;;;;;;;;;;;;9.55;37.95;102265.63;5034274;28;20338;-70
2021/04/24 12:04:40;;;;;;;;;;;;;;;9.56;37.70;102254.47;5030635;28;20059;-69
2021/04/24 12:07:05;;;;;;;;;;;;;;;9.70;37.72;102268.72;5018672;28;19920;-69
2021/04/24 12:09:30;;;;;;;;;;;;;;;9.65;37.14;102274.03;5032139;28;19909;-70
2021/04/24 12:11:59;;;;;;;;;;;;;;;9.75;37.75;102263.44;5033143;28;19959;-69
2021/04/24 12:14:25;;;;;;;;;;;;;;;9.95;37.17;102265.00;5050365;28;19999;-69
2021/04/24 12:16:50;;;;;;;;;;;;;;;9.87;37.08;102276.25;5052105;28;19999;-69
2021/04/24 12:19:22;;;;;;;;;;;;;;;9.85;36.79;102264.75;5035960;28;19925;-74
2021/04/24 12:21:58;;;;;;;;;;;;;;;10.15;36.66;102265.53;5013638;28;19927;-75
2021/04/24 12:24:23;;;;;;;;;;;;;;;10.34;36.27;102257.28;5020660;28;19999;-76
2021/04/24 12:26:50;;;;;;;;;;;;;;;10.38;35.85;102263.94;5032527;28;20020;-77
2021/04/24 12:29:15;;;;;;;;;;;;;;;10.32;36.08;102252.09;5013835;28;19936;-77
2021/04/24 12:31:41;;;;;;;;;;;;;;;10.25;36.05;102258.66;5032314;28;19917;-73
2021/04/24 12:34:06;;;;;;;;;;;;;;;10.44;35.70;102244.72;5033787;28;19915;-73
2021/04/24 12:36:38;;;;;;;;;;;;;;;10.58;35.64;102261.66;5030014;28;19959;-73
2021/04/24 12:39:13;;;;;;;;;;;;;;;10.87;35.82;102259.06;5031584;28;20294;-74
2021/04/24 12:41:39;;;;;;;;;;;;;;;11.04;34.78;102243.59;5031700;28;19913;-73